createdAt,value
2018-08-22T00:00:14.596Z,73.81
2018-08-22T00:02:44.034Z,74.74
2018-08-22T00:05:14.441Z,73.67
2018-08-22T00:07:43.945Z,73.64
2018-08-22T00:10:13.450Z,72.35
2018-08-22T00:12:43.263Z,73.20
2018-08-22T00:15:13.596Z,72.90
2018-08-22T00:17:43.026Z,73.13
2018-08-22T00:20:12.532Z,73.86
2018-08-22T00:22:41.983Z,73.20
2018-08-22T00:25:12.068Z,73.29
2018-08-22T00:27:42.817Z,72.68
2018-08-22T00:30:13.401Z,73.84
2018-08-22T00:32:43.199Z,73.25
2018-08-22T00:35:12.715Z,72.69
2018-08-22T00:37:42.301Z,73.12
2018-08-22T00:40:12.025Z,72.09
2018-08-22T00:42:41.512Z,72.08
2018-08-22T00:45:11.742Z,70.81
2018-08-22T00:47:41.354Z,71.87
2018-08-22T00:50:11.911Z,71.12
2018-08-22T00:52:41.828Z,70.47
2018-08-22T00:55:11.270Z,70.81
2018-08-22T00:57:41.235Z,70.83
2018-08-22T01:00:10.846Z,70.15
2018-08-22T01:02:42.206Z,70.74
2018-08-22T01:05:14.442Z,70.37
2018-08-22T01:07:43.952Z,71.44
2018-08-22T01:10:14.047Z,70.76
2018-08-22T01:12:43.519Z,70.66
2018-08-22T01:15:13.838Z,70.19
2018-08-22T01:17:43.286Z,71.24
2018-08-22T01:20:12.771Z,71.23
2018-08-22T01:22:42.218Z,71.02
2018-08-22T01:25:12.694Z,71.53
2018-08-22T01:27:46.294Z,71.49
2018-08-22T01:30:16.831Z,71.71
2018-08-22T01:32:46.448Z,70.96
2018-08-22T01:35:17.391Z,72.05
2018-08-22T01:37:46.839Z,71.52
2018-08-22T01:40:16.666Z,70.98
2018-08-22T01:42:46.132Z,71.36
2018-08-22T01:45:15.728Z,72.17
2018-08-22T01:47:46.673Z,72.42
2018-08-22T01:50:16.148Z,72.63
2018-08-22T01:52:45.722Z,72.90
2018-08-22T01:55:15.247Z,72.44
2018-08-22T01:57:45.170Z,72.78
2018-08-22T02:00:15.257Z,73.35
2018-08-22T02:02:45.873Z,72.37
2018-08-22T02:05:15.962Z,71.67
2018-08-22T02:07:45.526Z,72.12
2018-08-22T02:10:15.113Z,73.58
2018-08-22T02:12:44.939Z,72.22
2018-08-22T02:15:14.850Z,72.10
2018-08-22T02:17:45.548Z,71.43
2018-08-22T02:20:16.133Z,72.86
2018-08-22T02:22:45.614Z,72.41
2018-08-22T02:25:15.201Z,73.38
2018-08-22T02:27:44.685Z,72.29
2018-08-22T02:30:14.365Z,72.88
2018-08-22T02:32:44.236Z,73.71
2018-08-22T02:35:14.586Z,73.51
2018-08-22T02:37:44.185Z,73.25
2018-08-22T02:40:13.669Z,72.21
2018-08-22T02:42:43.206Z,72.77
2018-08-22T02:45:14.097Z,72.38
2018-08-22T02:47:44.260Z,71.45
2018-08-22T02:50:13.905Z,72.83
2018-08-22T02:53:14.097Z,72.14
2018-08-22T02:55:43.692Z,72.38
2018-08-22T02:58:14.538Z,72.57
2018-08-22T03:00:44.225Z,73.00
2018-08-22T03:03:13.874Z,73.19
2018-08-22T03:05:43.447Z,72.75
2018-08-22T03:08:13.172Z,72.39
2018-08-22T03:12:12.192Z,72.58
2018-08-22T03:14:42.400Z,73.15
2018-08-22T03:17:33.676Z,74.60
2018-08-22T03:20:03.224Z,74.82
2018-08-22T03:22:39.292Z,73.98
2018-08-22T03:25:08.942Z,74.39
2018-08-22T03:27:40.864Z,74.06
2018-08-22T03:30:10.505Z,74.73
2018-08-22T03:32:41.018Z,75.01
2018-08-22T03:35:11.105Z,75.42
2018-08-22T03:37:40.584Z,74.35
2018-08-22T03:40:10.696Z,74.64
2018-08-22T03:42:41.209Z,74.71
2018-08-22T03:45:11.717Z,75.96
2018-08-22T03:47:41.322Z,75.21
2018-08-22T03:50:10.885Z,75.42
2018-08-22T03:52:40.680Z,75.48
2018-08-22T03:55:10.218Z,75.33
2018-08-22T03:57:40.665Z,76.32
2018-08-22T04:00:10.948Z,76.17
2018-08-22T04:02:42.030Z,76.63
2018-08-22T04:08:13.835Z,77.25
2018-08-22T04:10:45.131Z,77.43
2018-08-22T04:13:15.733Z,77.54
2018-08-22T04:15:46.919Z,77.57
2018-08-22T04:18:17.590Z,77.96
2018-08-22T04:20:47.416Z,77.67
2018-08-22T04:23:17.037Z,78.62
2018-08-22T04:25:49.482Z,78.00
2018-08-22T04:28:19.721Z,77.68
2018-08-22T04:30:51.839Z,78.12
2018-08-22T04:33:21.423Z,77.92
2018-08-22T04:35:51.620Z,77.61
2018-08-22T04:38:21.042Z,77.67
2018-08-22T04:40:50.887Z,77.75
2018-08-22T04:43:20.497Z,77.88
2018-08-22T04:45:50.587Z,78.31
2018-08-22T04:48:21.885Z,77.10
2018-08-22T04:50:51.540Z,76.61
2018-08-22T04:53:36.637Z,75.89
2018-08-22T04:56:07.435Z,76.00
2018-08-22T04:58:36.905Z,76.07
2018-08-22T05:01:07.942Z,74.92
2018-08-22T05:03:37.490Z,74.40
2018-08-22T05:06:07.966Z,75.02
2018-08-22T05:08:40.631Z,75.02
2018-08-22T05:11:11.312Z,74.00
2018-08-22T05:13:43.142Z,74.13
2018-08-22T05:16:14.660Z,73.41
2018-08-22T05:18:44.299Z,73.10
2018-08-22T05:21:15.917Z,72.34
2018-08-22T05:23:46.092Z,71.72
2018-08-22T05:26:16.049Z,71.79
2018-08-22T05:28:47.271Z,71.34
2018-08-22T05:31:17.953Z,71.36
2018-08-22T05:33:48.260Z,70.83
2018-08-22T05:36:17.848Z,70.64
2018-08-22T05:38:48.917Z,70.25
2018-08-22T05:41:39.994Z,69.68
2018-08-22T05:44:09.711Z,69.11
2018-08-22T05:46:39.467Z,69.20
2018-08-22T05:49:09.340Z,67.62
2018-08-22T05:54:14.320Z,65.13
2018-08-22T05:56:43.901Z,66.88
2018-08-22T05:59:13.458Z,65.05
2018-08-22T06:01:43.863Z,65.20
2018-08-22T06:04:13.458Z,64.22
2018-08-22T06:06:44.985Z,63.79
2018-08-22T06:09:14.707Z,64.70
2018-08-22T06:11:44.940Z,63.58
2018-08-22T06:14:14.493Z,62.54
2018-08-22T06:16:44.048Z,61.98
2018-08-22T06:19:13.762Z,61.82
2018-08-22T06:21:44.010Z,61.43
2018-08-22T06:24:16.297Z,60.80
2018-08-22T06:26:46.006Z,61.14
2018-08-22T06:29:32.519Z,61.91
2018-08-22T06:32:03.080Z,60.62
2018-08-22T06:34:32.530Z,60.72
2018-08-22T06:37:02.090Z,59.56
2018-08-22T06:39:34.429Z,59.43
2018-08-22T06:42:05.512Z,59.64
2018-08-22T06:44:36.088Z,59.21
2018-08-22T06:47:06.478Z,59.05
2018-08-22T06:49:36.117Z,58.96
2018-08-22T06:52:06.850Z,58.49
2018-08-22T06:54:36.845Z,57.45
2018-08-22T06:57:06.486Z,57.66
2018-08-22T06:59:36.063Z,57.23
2018-08-22T07:02:05.649Z,57.04
2018-08-22T07:04:36.371Z,58.16
2018-08-22T07:07:06.513Z,58.03
2018-08-22T07:09:37.014Z,58.37
2018-08-22T07:12:06.673Z,58.26
2018-08-22T07:14:36.445Z,56.93
2018-08-22T07:17:54.102Z,57.13
2018-08-22T07:20:23.779Z,56.28
2018-08-22T07:22:53.439Z,55.45
2018-08-22T07:25:23.007Z,56.48
2018-08-22T07:27:53.400Z,56.09
2018-08-22T07:30:23.341Z,54.31
2018-08-22T07:32:53.036Z,54.49
2018-08-22T07:35:22.569Z,53.02
2018-08-22T07:37:54.838Z,53.08
2018-08-22T07:40:24.490Z,52.09
2018-08-22T07:42:54.162Z,51.65
2018-08-22T07:45:25.827Z,50.40
2018-08-22T07:47:56.239Z,50.99
2018-08-22T07:50:26.923Z,51.00
2018-08-22T07:53:01.665Z,51.52
2018-08-22T07:55:33.855Z,50.16
2018-08-22T07:58:03.864Z,49.75
2018-08-22T08:00:33.620Z,50.17
2018-08-22T08:03:04.487Z,49.86
2018-08-22T08:05:44.130Z,50.39
2018-08-22T08:08:14.487Z,50.23
2018-08-22T08:10:44.724Z,48.94
2018-08-22T08:13:20.389Z,48.79
2018-08-22T08:15:49.964Z,49.27
2018-08-22T08:18:19.787Z,49.08
2018-08-22T08:20:49.289Z,49.48
2018-08-22T08:23:18.806Z,48.06
2018-08-22T08:25:48.368Z,48.37
2018-08-22T08:28:18.391Z,47.91
2018-08-22T08:30:48.352Z,47.51
2018-08-22T08:33:17.891Z,47.56
2018-08-22T08:35:47.558Z,48.25
2018-08-22T08:38:17.036Z,49.36
2018-08-22T08:40:46.476Z,48.35
2018-08-22T08:43:15.973Z,48.48
2018-08-22T08:45:45.539Z,48.19
2018-08-22T08:48:15.031Z,48.45
2018-08-22T08:50:44.492Z,47.61
2018-08-22T08:53:14.131Z,47.02
2018-08-22T08:55:43.563Z,47.87
2018-08-22T08:58:13.205Z,47.23
2018-08-22T09:00:42.870Z,47.53
2018-08-22T09:03:12.349Z,47.53
2018-08-22T09:05:41.890Z,46.73
2018-08-22T09:08:11.340Z,46.88
2018-08-22T09:10:40.845Z,46.39
2018-08-22T09:13:11.750Z,45.31
2018-08-22T09:15:41.972Z,45.37
2018-08-22T09:18:11.606Z,44.76
2018-08-22T09:20:41.555Z,44.69
2018-08-22T09:23:11.071Z,44.84
2018-08-22T09:25:40.508Z,44.01
2018-08-22T09:28:10.059Z,44.41
2018-08-22T09:30:39.448Z,45.69
2018-08-22T09:33:08.997Z,45.38
2018-08-22T09:35:38.590Z,45.57
2018-08-22T09:38:08.140Z,44.29
2018-08-22T09:40:37.804Z,45.02
2018-08-22T09:43:07.526Z,43.84
2018-08-22T09:45:37.106Z,43.59
2018-08-22T09:48:06.899Z,45.14
2018-08-22T09:50:36.408Z,44.13
2018-08-22T09:53:06.082Z,43.96
2018-08-22T09:55:35.542Z,44.62
2018-08-22T09:58:05.007Z,45.03
2018-08-22T10:00:40.019Z,44.08
2018-08-22T10:03:09.443Z,43.79
2018-08-22T10:05:38.942Z,44.08
2018-08-22T10:08:08.473Z,43.88
2018-08-22T10:10:37.926Z,42.79
2018-08-22T10:13:07.409Z,42.50
2018-08-22T10:15:36.972Z,43.34
2018-08-22T10:18:07.031Z,41.97
2018-08-22T10:20:36.676Z,41.73
2018-08-22T10:23:06.187Z,42.84
2018-08-22T10:25:35.960Z,41.57
2018-08-22T10:28:05.636Z,41.58
2018-08-22T10:30:35.244Z,40.79
2018-08-22T10:33:04.762Z,41.99
2018-08-22T10:35:34.302Z,41.73
2018-08-22T10:38:03.830Z,41.80
2018-08-22T10:40:33.421Z,43.15
2018-08-22T10:43:03.099Z,41.55
2018-08-22T10:45:32.578Z,41.82
2018-08-22T10:48:02.105Z,41.12
2018-08-22T10:50:31.600Z,41.63
2018-08-22T10:53:01.040Z,40.18
2018-08-22T10:55:30.440Z,41.31
2018-08-22T10:57:59.970Z,42.40
2018-08-22T11:00:29.572Z,41.07
2018-08-22T11:02:59.125Z,40.29
2018-08-22T11:05:28.740Z,41.23
2018-08-22T11:07:58.197Z,40.17
2018-08-22T11:10:27.737Z,40.69
2018-08-22T11:12:57.244Z,41.00
2018-08-22T11:15:27.121Z,40.08
2018-08-22T11:17:57.040Z,39.97
2018-08-22T11:20:30.213Z,39.72
2018-08-22T11:23:16.684Z,41.64
2018-08-22T11:26:03.026Z,40.20
2018-08-22T11:28:49.454Z,38.34
2018-08-22T11:31:35.776Z,38.62
2018-08-22T11:34:23.257Z,39.84
2018-08-22T11:37:04.467Z,39.93
2018-08-22T11:39:34.248Z,40.92
2018-08-22T11:42:05.022Z,40.26
2018-08-22T11:44:34.458Z,39.10
2018-08-22T11:47:03.982Z,38.55
2018-08-22T11:49:34.452Z,38.00
2018-08-22T11:52:03.921Z,37.57
2018-08-22T11:54:33.450Z,37.37
2018-08-22T11:57:03.217Z,36.75
2018-08-22T11:59:32.876Z,36.02
2018-08-22T12:02:02.400Z,36.60
2018-08-22T12:04:31.851Z,36.46
2018-08-22T12:07:01.506Z,34.88
2018-08-22T12:09:31.066Z,35.32
2018-08-22T12:12:00.720Z,35.08
2018-08-22T12:14:30.165Z,34.64
2018-08-22T12:17:00.190Z,36.11
2018-08-22T12:19:29.643Z,36.16
2018-08-22T12:21:59.077Z,34.81
2018-08-22T12:24:28.612Z,33.78
2018-08-22T12:26:58.075Z,32.49
2018-08-22T12:29:27.635Z,32.68
2018-08-22T12:31:57.111Z,32.04
2018-08-22T12:34:26.619Z,29.86
2018-08-22T12:36:57.136Z,28.18
2018-08-22T12:39:28.346Z,26.15
2018-08-22T12:41:57.885Z,24.51
2018-08-22T12:44:27.484Z,23.45
2018-08-22T12:46:57.049Z,23.15
2018-08-22T12:49:27.128Z,22.99
2018-08-22T12:51:56.646Z,21.80
2018-08-22T12:54:26.105Z,21.00
2018-08-22T12:56:56.001Z,19.70
2018-08-22T12:59:26.320Z,20.93
2018-08-22T13:01:55.797Z,19.17
2018-08-22T13:04:25.292Z,19.14
2018-08-22T13:06:56.913Z,18.52
2018-08-22T13:09:26.329Z,18.58
2018-08-22T13:11:56.489Z,20.91
2018-08-22T13:14:27.564Z,18.88
2018-08-22T13:16:57.072Z,19.27
2018-08-22T13:19:26.923Z,20.71
2018-08-22T13:21:56.390Z,18.50
2018-08-22T13:24:26.228Z,22.68
2018-08-22T13:26:55.645Z,19.92
2018-08-22T13:29:25.157Z,17.86
2018-08-22T13:31:54.685Z,17.80
2018-08-22T13:34:24.200Z,17.17
2018-08-22T13:36:53.639Z,16.94
2018-08-22T13:39:24.255Z,19.02
2018-08-22T13:41:54.044Z,18.08
2018-08-22T13:44:23.777Z,20.30
2018-08-22T13:46:53.413Z,17.46
2018-08-22T13:49:23.068Z,16.79
2018-08-22T13:51:52.583Z,18.20
2018-08-22T13:54:22.333Z,18.07
2018-08-22T13:56:53.042Z,20.42
2018-08-22T13:59:22.472Z,20.61
2018-08-22T14:01:51.949Z,20.13
2018-08-22T14:04:21.511Z,21.22
2018-08-22T14:06:51.617Z,19.00
2018-08-22T14:09:21.175Z,19.58
2018-08-22T14:11:53.970Z,17.67
2018-08-22T14:14:25.183Z,17.58
2018-08-22T14:16:54.709Z,16.98
2018-08-22T14:19:24.182Z,18.48
2018-08-22T14:21:55.198Z,19.00
2018-08-22T14:24:24.629Z,21.25
2018-08-22T14:26:54.092Z,22.96
2018-08-22T14:29:24.153Z,19.90
2018-08-22T14:31:53.757Z,19.15
2018-08-22T14:34:24.718Z,19.56
2018-08-22T14:36:54.182Z,19.26
2018-08-22T14:39:24.156Z,17.52
2018-08-22T14:41:53.614Z,18.25
2018-08-22T14:44:23.113Z,17.08
2018-08-22T14:46:52.587Z,17.19
2018-08-22T14:49:22.068Z,16.54
2018-08-22T14:51:51.574Z,16.14
2018-08-22T14:54:21.072Z,15.67
2018-08-22T14:56:50.525Z,15.71
2018-08-22T14:59:20.040Z,15.69
2018-08-22T15:01:49.516Z,16.22
2018-08-22T15:04:19.765Z,15.88
2018-08-22T15:06:49.244Z,16.44
2018-08-22T15:09:21.242Z,16.63
2018-08-22T15:11:50.769Z,16.48
2018-08-22T15:14:20.404Z,16.70
2018-08-22T15:16:49.871Z,16.87
2018-08-22T15:19:22.007Z,17.13
2018-08-22T15:21:52.852Z,16.81
2018-08-22T15:24:22.407Z,17.09
2018-08-22T15:26:51.912Z,16.08
2018-08-22T15:29:21.778Z,15.55
2018-08-22T15:31:51.956Z,14.99
2018-08-22T15:34:21.446Z,14.69
2018-08-22T15:36:50.920Z,15.01
2018-08-22T15:39:21.364Z,16.28
2018-08-22T15:41:50.807Z,14.94
2018-08-22T15:44:20.578Z,15.27
2018-08-22T15:46:52.557Z,15.25
2018-08-22T15:49:21.994Z,15.50
2018-08-22T15:51:51.873Z,14.88
2018-08-22T15:54:25.420Z,14.56
2018-08-22T15:56:55.762Z,15.25
2018-08-22T15:59:25.685Z,15.56
2018-08-22T16:01:55.174Z,15.06
2018-08-22T16:04:27.214Z,15.57
2018-08-22T16:07:02.466Z,15.41
2018-08-22T16:09:33.121Z,15.91
2018-08-22T16:12:03.191Z,17.09
2018-08-22T16:14:33.601Z,18.21
2018-08-22T16:17:03.007Z,17.85
2018-08-22T16:19:34.944Z,16.99
2018-08-22T16:22:06.044Z,18.53
2018-08-22T16:24:35.575Z,16.87
2018-08-22T16:27:06.366Z,17.89
2018-08-22T16:29:35.770Z,17.08
2018-08-22T16:32:05.249Z,17.15
2018-08-22T16:34:36.024Z,20.06
2018-08-22T16:37:05.821Z,19.03
2018-08-22T16:39:44.134Z,18.26
2018-08-22T16:42:14.082Z,18.92
2018-08-22T16:44:44.227Z,18.76
2018-08-22T16:47:18.809Z,18.84
2018-08-22T16:49:49.257Z,19.97
2018-08-22T16:52:19.159Z,19.64
2018-08-22T16:54:53.888Z,20.00
2018-08-22T16:57:23.434Z,19.77
2018-08-22T16:59:52.937Z,19.33
2018-08-22T17:02:25.373Z,19.50
2018-08-22T17:04:54.935Z,19.20
2018-08-22T17:07:25.206Z,20.96
2018-08-22T17:09:55.749Z,20.77
2018-08-22T17:12:25.263Z,21.60
2018-08-22T17:14:55.784Z,22.56
2018-08-22T17:17:25.605Z,22.31
2018-08-22T17:19:55.867Z,22.11
2018-08-22T17:22:41.906Z,22.26
2018-08-22T17:25:15.041Z,23.80
2018-08-22T17:27:44.648Z,25.44
2018-08-22T17:30:15.124Z,25.48
2018-08-22T17:32:45.864Z,26.42
2018-08-22T17:35:16.198Z,28.34
2018-08-22T17:37:59.111Z,28.67
2018-08-22T17:40:29.013Z,30.42
2018-08-22T17:43:00.464Z,30.98
2018-08-22T17:45:36.944Z,33.00
2018-08-22T17:48:07.279Z,33.97
2018-08-22T17:50:37.881Z,35.83
2018-08-22T17:53:10.315Z,36.35
2018-08-22T17:55:43.353Z,37.09
2018-08-22T17:58:14.292Z,37.63
2018-08-22T18:00:45.259Z,38.09
2018-08-22T18:03:16.010Z,39.15
2018-08-22T18:05:45.504Z,41.11
2018-08-22T18:08:16.820Z,42.29
2018-08-22T18:10:53.993Z,41.89
2018-08-22T18:13:23.478Z,42.94
2018-08-22T18:15:53.088Z,42.75
2018-08-22T18:18:23.478Z,43.17
2018-08-22T18:20:54.717Z,43.23
2018-08-22T18:23:25.734Z,43.73
2018-08-22T18:26:02.759Z,44.60
2018-08-22T18:28:33.582Z,45.24
2018-08-22T18:31:03.663Z,45.64
2018-08-22T18:33:34.127Z,45.41
2018-08-22T18:36:05.675Z,45.49
2018-08-22T18:38:35.141Z,49.18
2018-08-22T18:41:09.264Z,47.16
2018-08-22T18:43:39.801Z,47.12
2018-08-22T18:46:09.614Z,46.87
2018-08-22T18:48:39.064Z,48.08
2018-08-22T18:51:09.345Z,48.77
2018-08-22T18:53:38.848Z,48.94
2018-08-22T18:56:16.095Z,51.24
2018-08-22T18:58:45.655Z,51.13
2018-08-22T19:01:15.084Z,50.02
2018-08-22T19:03:44.710Z,50.38
2018-08-22T19:06:14.370Z,51.24
2018-08-22T19:08:46.462Z,51.05
2018-08-22T19:11:16.673Z,51.89
2018-08-22T19:13:46.103Z,51.82
2018-08-22T19:16:15.736Z,53.63
2018-08-22T19:18:46.127Z,54.19
2018-08-22T19:21:15.706Z,54.89
2018-08-22T19:23:50.360Z,55.22
2018-08-22T19:26:20.037Z,55.78
2018-08-22T19:28:58.252Z,56.72
2018-08-22T19:31:27.794Z,56.34
2018-08-22T19:33:57.570Z,56.08
2018-08-22T19:36:27.068Z,56.34
2018-08-22T19:38:56.585Z,56.71
2018-08-22T19:41:29.930Z,57.14
2018-08-22T19:43:59.408Z,56.48
2018-08-22T19:46:28.837Z,56.13
2018-08-22T19:49:00.785Z,55.72
2018-08-22T19:51:30.449Z,58.01
2018-08-22T19:54:07.069Z,56.97
2018-08-22T19:56:36.550Z,57.08
2018-08-22T19:59:06.497Z,56.75
2018-08-22T20:01:37.461Z,58.16
2018-08-22T20:04:06.990Z,57.88
2018-08-22T20:06:36.436Z,58.03
2018-08-22T20:09:06.894Z,58.81
2018-08-22T20:11:36.517Z,58.63
2018-08-22T20:14:07.222Z,58.70
2018-08-22T20:16:36.869Z,58.81
2018-08-22T20:19:06.349Z,58.20
2018-08-22T20:21:39.326Z,57.94
2018-08-22T20:24:13.551Z,59.07
2018-08-22T20:26:51.192Z,59.51
2018-08-22T20:29:20.963Z,59.91
2018-08-22T20:31:50.517Z,59.70
2018-08-22T20:34:20.145Z,61.26
2018-08-22T20:36:50.741Z,61.35
2018-08-22T20:39:20.611Z,61.63
2018-08-22T20:41:56.694Z,61.95
2018-08-22T20:44:26.141Z,62.35
2018-08-22T20:46:56.135Z,61.29
2018-08-22T20:49:25.761Z,61.34
2018-08-22T20:51:59.299Z,61.23
2018-08-22T20:54:30.211Z,60.58
2018-08-22T20:57:00.510Z,60.73
2018-08-22T20:59:32.531Z,61.07
2018-08-22T21:02:04.499Z,60.77
2018-08-22T21:04:34.691Z,61.21
2018-08-22T21:07:04.837Z,61.04
2018-08-22T21:09:34.363Z,60.54
2018-08-22T21:12:05.218Z,60.36
2018-08-22T21:14:34.716Z,59.87
2018-08-22T21:17:04.205Z,60.45
2018-08-22T21:19:33.683Z,61.08
2018-08-22T21:22:04.294Z,60.91
2018-08-22T21:24:34.546Z,62.43
2018-08-22T21:27:04.104Z,63.67
2018-08-22T21:29:36.734Z,64.68
2018-08-22T21:32:07.652Z,65.27
2018-08-22T21:34:37.289Z,65.06
2018-08-22T21:37:30.159Z,65.58
2018-08-22T21:39:59.796Z,64.59
2018-08-22T21:42:33.028Z,64.83
2018-08-22T21:45:04.502Z,63.70
2018-08-22T21:47:33.956Z,63.85
2018-08-22T21:50:03.925Z,63.37
2018-08-22T21:52:53.809Z,63.52
2018-08-22T21:55:28.409Z,63.93
2018-08-22T21:57:59.247Z,64.16
2018-08-22T22:00:34.878Z,63.41
2018-08-22T22:03:04.489Z,63.56
2018-08-22T22:05:44.127Z,64.31
2018-08-22T22:08:13.659Z,62.01
2018-08-22T22:10:43.594Z,60.56
2018-08-22T22:13:13.271Z,60.37
2018-08-22T22:15:45.759Z,60.51
2018-08-22T22:18:16.830Z,61.02
2018-08-22T22:20:51.236Z,61.74
2018-08-22T22:23:20.668Z,62.47
2018-08-22T22:25:50.118Z,62.41
2018-08-22T22:28:25.843Z,63.50
2018-08-22T22:30:55.294Z,62.90
2018-08-22T22:33:24.826Z,63.36
2018-08-22T22:35:55.375Z,63.64
2018-08-22T22:38:25.656Z,64.52
2018-08-22T22:40:55.458Z,65.87
2018-08-22T22:43:25.570Z,64.29
2018-08-22T22:45:55.057Z,64.27
2018-08-22T22:48:43.713Z,64.95
2018-08-22T22:51:13.309Z,66.42
2018-08-22T22:53:42.842Z,66.99
2018-08-22T22:56:12.284Z,68.62
2018-08-22T22:58:42.919Z,69.19
2018-08-22T23:01:13.149Z,68.76
2018-08-22T23:03:43.976Z,68.42
2018-08-22T23:06:13.548Z,69.84
2018-08-22T23:08:43.507Z,69.94
2018-08-22T23:11:14.071Z,69.80
2018-08-22T23:13:43.921Z,68.68
2018-08-22T23:16:14.087Z,69.24
2018-08-22T23:18:45.229Z,68.69
2018-08-22T23:21:14.772Z,68.83
2018-08-22T23:23:44.332Z,68.32
2018-08-22T23:26:20.678Z,68.41
2018-08-22T23:28:50.737Z,70.17
2018-08-22T23:31:21.659Z,69.24
2018-08-22T23:33:52.021Z,68.47
2018-08-22T23:36:21.665Z,68.49
2018-08-22T23:38:51.188Z,68.83
2018-08-22T23:41:20.740Z,69.36
2018-08-22T23:43:52.735Z,70.01
2018-08-22T23:46:22.175Z,69.05
2018-08-22T23:48:58.942Z,68.66
2018-08-22T23:51:28.458Z,69.34
2018-08-22T23:54:00.480Z,70.57
2018-08-22T23:56:31.703Z,71.51
2018-08-22T23:59:01.302Z,72.96
